| time (UTC) | temp F | wind direction | speed MPH | gust MPH | rain 1hr in | rain 24hr in | rain mn in | humidity % | barometer mb |
| 20260510204604 | 66 | 304 | 1.0 | 5.0 | 0.00 | 0.20 | 0.00 | 57 | 1040.1 |
| 20260510203048 | 68 | 243 | 1.0 | 8.0 | 0.00 | 0.20 | 0.00 | 55 | 1040.1 |
| 20260510201550 | 66 | 317 | 2.0 | 4.0 | 0.00 | 0.20 | 0.00 | 60 | 1040.2 |
| 20260510200050 | 67 | 26 | 1.0 | 6.0 | 0.00 | 0.20 | 0.00 | 60 | 1040.1 |
| 20260510194601 | 66 | 352 | 1.0 | 6.0 | 0.00 | 0.28 | 0.00 | 60 | 1040.3 |
| 20260510193050 | 68 | 5 | 1.0 | 5.0 | 0.00 | 0.28 | 0.00 | 60 | 1040.2 |
| 20260510191555 | 67 | 5 | 2.0 | 9.0 | 0.00 | 0.28 | 0.00 | 61 | 1040.4 |
| 20260510190057 | 68 | 348 | 1.0 | 4.0 | 0.00 | 0.28 | 0.00 | 61 | 1040.5 |
| 20260510184558 | 68 | 288 | 1.0 | 6.0 | 0.00 | 0.36 | 0.00 | 61 | 1040.4 |
| 20260510183054 | 66 | 5 | 0.0 | 6.0 | 0.00 | 0.36 | 0.00 | 67 | 1040.4 |
| 20260510181608 | 64 | 328 | 1.0 | 4.0 | 0.00 | 0.36 | 0.00 | 70 | 1040.5 |
| 20260510180053 | 64 | 36 | 0.0 | 4.0 | 0.00 | 0.36 | 0.00 | 69 | 1040.5 |
| 20260510174559 | 68 | 292 | 1.0 | 9.0 | 0.00 | 0.45 | 0.00 | 62 | 1040.3 |
| 20260510173050 | 65 | 61 | 2.0 | 6.0 | 0.00 | 0.45 | 0.00 | 66 | 1040.4 |
| 20260510171619 | 64 | 0 | 1.0 | 7.0 | 0.00 | 0.45 | 0.00 | 69 | 1040.5 |
| 20260510170054 | 65 | 165 | 1.0 | 7.0 | 0.00 | 0.45 | 0.00 | 66 | 1040.6 |
| 20260510164600 | 65 | 0 | 1.0 | 8.0 | 0.00 | 0.56 | 0.00 | 70 | 1040.8 |
| 20260510163057 | 66 | 248 | 2.0 | 9.0 | 0.00 | 0.56 | 0.00 | 67 | 1040.9 |
| 20260510161550 | 64 | 76 | 1.0 | 8.0 | 0.00 | 0.56 | 0.00 | 69 | 1040.9 |
| 20260510160051 | 64 | 46 | 2.0 | 9.0 | 0.00 | 0.56 | 0.00 | 69 | 1040.9 |
| 20260510154559 | 63 | 38 | 1.0 | 8.0 | 0.00 | 0.62 | 0.00 | 73 | 1041.0 |
| 20260510153055 | 62 | 98 | 2.0 | 8.0 | 0.00 | 0.62 | 0.00 | 75 | 1041.0 |
| 20260510151550 | 61 | 140 | 1.0 | 10.0 | 0.00 | 0.62 | 0.00 | 77 | 1041.0 |
| 20260510150056 | 60 | 159 | 2.0 | 6.0 | 0.00 | 0.62 | 0.00 | 80 | 1040.9 |
| 20260510144600 | 58 | 209 | 2.0 | 8.0 | 0.00 | 0.66 | 0.00 | 81 | 1041.0 |
| 20260510143050 | 59 | 75 | 3.0 | 8.0 | 0.00 | 0.66 | 0.00 | 80 | 1041.1 |
| 20260510141553 | 58 | 0 | 1.0 | 7.0 | 0.00 | 0.66 | 0.00 | 85 | 1041.0 |
| 20260510140050 | 56 | 80 | 1.0 | 4.0 | 0.00 | 0.66 | 0.00 | 89 | 1041.3 |
| 20260510134553 | 54 | 71 | 0.0 | 3.0 | 0.00 | 0.70 | 0.00 | 89 | 1041.3 |
| 20260510133110 | 53 | 13 | 0.0 | 4.0 | 0.00 | 0.70 | 0.00 | 91 | 1041.2 |
| 20260510131551 | 53 | 67 | 0.0 | 3.0 | 0.00 | 0.70 | 0.00 | 94 | 1041.2 |
| 20260510130055 | 51 | 154 | 1.0 | 4.0 | 0.00 | 0.70 | 0.00 | 96 | 1041.1 |
| 20260510124557 | 50 | 30 | 0.0 | 3.0 | 0.00 | 0.72 | 0.00 | 97 | 1041.1 |
| 20260510123053 | 50 | 107 | 0.0 | 4.0 | 0.00 | 0.72 | 0.00 | 97 | 1041.2 |
| 20260510121550 | 50 | 286 | 0.0 | 5.0 | 0.00 | 0.72 | 0.00 | 98 | 1041.3 |
| 20260510120050 | 49 | 100 | 0.0 | 4.0 | 0.00 | 0.72 | 0.00 | 98 | 1041.4 |
| 20260510114608 | 49 | 0 | 0.0 | 3.0 | 0.00 | 0.72 | 0.00 | 98 | 1041.2 |
| 20260510113058 | 48 | 342 | 2.0 | 4.0 | 0.00 | 0.72 | 0.00 | 98 | 1041.1 |
| 20260510111548 | 48 | 98 | 0.0 | 8.0 | 0.00 | 0.72 | 0.00 | 98 | 1040.8 |
| 20260510110056 | 48 | 198 | 1.0 | 5.0 | 0.00 | 0.72 | 0.00 | 98 | 1040.6 |
| 20260510104550 | 48 | 0 | 0.0 | 4.0 | 0.00 | 0.72 | 0.00 | 98 | 1040.4 |
| 20260510103056 | 48 | 0 | 1.0 | 4.0 | 0.00 | 0.72 | 0.00 | 98 | 1040.3 |
| 20260510101600 | 48 | 0 | 0.0 | 5.0 | 0.00 | 0.72 | 0.00 | 98 | 1040.0 |
| 20260510100105 | 48 | 159 | 0.0 | 3.0 | 0.00 | 0.72 | 0.00 | 98 | 1039.6 |
| 20260510094556 | 48 | 0 | 0.0 | 3.0 | 0.00 | 0.72 | 0.00 | 98 | 1039.5 |
| 20260510093050 | 47 | 80 | 0.0 | 3.0 | 0.00 | 0.72 | 0.00 | 98 | 1039.3 |
| 20260510091551 | 47 | 0 | 0.0 | 3.0 | 0.00 | 0.72 | 0.00 | 99 | 1038.8 |
| 20260510090049 | 47 | 0 | 0.0 | 3.0 | 0.00 | 0.72 | 0.00 | 99 | 1039.5 |
| 20260510084610 | 46 | 0 | 0.0 | 2.0 | 0.00 | 0.72 | 0.00 | 98 | 1039.8 |
| 20260510083050 | 46 | 0 | 0.0 | 1.0 | 0.00 | 0.72 | 0.00 | 98 | 1039.9 |
| 20260510081556 | 46 | 0 | 0.0 | 2.0 | 0.00 | 0.72 | 0.00 | 98 | 1039.6 |
| 20260510080100 | 46 | 0 | 0.0 | 1.0 | 0.00 | 0.72 | 0.00 | 98 | 1039.6 |
| 20260510074555 | 46 | 40 | 0.0 | 2.0 | 0.00 | 0.72 | 0.00 | 98 | 1039.4 |
| 20260510073058 | 45 | 132 | 0.0 | 1.0 | 0.00 | 0.72 | 0.00 | 98 | 1039.5 |
| 20260510071550 | 45 | 0 | 0.0 | 1.0 | 0.00 | 0.72 | 0.00 | 98 | 1039.5 |
| 20260510070056 | 45 | 0 | 0.0 | 1.0 | 0.00 | 0.72 | 0.00 | 98 | 1039.4 |
| 20260510064552 | 45 | 0 | 0.0 | 2.0 | 0.00 | 0.72 | 0.00 | 98 | 1039.6 |
| 20260510063054 | 45 | 0 | 0.0 | 0.0 | 0.00 | 0.72 | 0.00 | 98 | 1039.8 |
| 20260510061549 | 45 | 0 | 0.0 | 1.0 | 0.00 | 0.72 | 0.00 | 98 | 1039.6 |
| 20260510060050 | 45 | 0 | 0.0 | 0.0 | 0.00 | 0.72 | 0.00 | 98 | 1039.3 |
| 20260510054549 | 45 | 0 | 0.0 | 0.0 | 0.00 | 0.72 | 0.00 | 98 | 1039.7 |
| 20260510053054 | 45 | 0 | 0.0 | 2.0 | 0.00 | 0.72 | 0.00 | 98 | 1039.5 |
| 20260510051602 | 45 | 0 | 0.0 | 1.0 | 0.00 | 0.72 | 0.00 | 98 | 1039.6 |
| 20260510050059 | 45 | 0 | 0.0 | 2.0 | 0.00 | 0.72 | 0.00 | 98 | 1039.7 |
| 20260510044552 | 44 | 0 | 0.0 | 1.0 | 0.00 | 0.72 | 0.00 | 97 | 1040.0 |
| 20260510043050 | 44 | 0 | 0.0 | 1.0 | 0.00 | 0.72 | 0.00 | 97 | 1040.1 |
| 20260510041553 | 44 | 0 | 0.0 | 2.0 | 0.00 | 0.72 | 0.00 | 97 | 1040.1 |
| 20260510040053 | 44 | 115 | 0.0 | 1.0 | 0.00 | 0.72 | 0.00 | 97 | 1040.1 |
| 20260510034548 | 44 | 0 | 0.0 | 1.0 | 0.00 | 0.72 | 0.72 | 97 | 1040.0 |
| 20260510033056 | 44 | 0 | 0.0 | 0.0 | 0.00 | 0.72 | 0.72 | 97 | 1040.2 |
| 20260510031551 | 44 | 0 | 0.0 | 1.0 | 0.00 | 0.72 | 0.72 | 97 | 1040.4 |
| 20260510030059 | 44 | 0 | 0.0 | 0.0 | 0.00 | 0.72 | 0.72 | 97 | 1040.5 |
| 20260510024548 | 44 | 0 | 0.0 | 1.0 | 0.00 | 0.72 | 0.72 | 97 | 1040.6 |
| 20260510023049 | 44 | 0 | 0.0 | 1.0 | 0.00 | 0.72 | 0.72 | 97 | 1040.7 |
| 20260510021638 | 44 | 0 | 0.0 | 1.0 | 0.00 | 0.72 | 0.72 | 97 | 1040.8 |
| 20260510020053 | 44 | 0 | 0.0 | 1.0 | 0.00 | 0.72 | 0.72 | 97 | 1040.8 |
| 20260510014557 | 44 | 0 | 0.0 | 2.0 | 0.00 | 0.72 | 0.72 | 97 | 1040.8 |
| 20260510013058 | 44 | 0 | 0.0 | 1.0 | 0.00 | 0.72 | 0.72 | 97 | 1040.9 |
| 20260510011549 | 44 | 115 | 0.0 | 1.0 | 0.00 | 0.72 | 0.72 | 97 | 1040.9 |
| 20260510010057 | 44 | 0 | 0.0 | 0.0 | 0.00 | 0.72 | 0.72 | 97 | 1040.8 |
| 20260510004555 | 44 | 0 | 0.0 | 1.0 | 0.00 | 0.72 | 0.72 | 97 | 1040.6 |
| 20260510003051 | 44 | 0 | 0.0 | 1.0 | 0.00 | 0.72 | 0.72 | 97 | 1040.6 |
| 20260510001547 | 44 | 0 | 0.0 | 2.0 | 0.00 | 0.72 | 0.72 | 97 | 1040.5 |
| 20260510000054 | 44 | 0 | 0.0 | 2.0 | 0.00 | 0.72 | 0.72 | 97 | 1040.5 |
| 20260509234549 | 44 | 0 | 0.0 | 1.0 | 0.00 | 0.72 | 0.72 | 97 | 1040.5 |
| 20260509233048 | 44 | 101 | 0.0 | 1.0 | 0.00 | 0.72 | 0.72 | 97 | 1040.5 |
| 20260509231553 | 44 | 0 | 0.0 | 1.0 | 0.00 | 0.72 | 0.72 | 97 | 1040.4 |
| 20260509230054 | 44 | 0 | 0.0 | 1.0 | 0.00 | 0.72 | 0.72 | 97 | 1040.4 |
| 20260509224553 | 44 | 0 | 0.0 | 1.0 | 0.01 | 0.72 | 0.72 | 96 | 1040.4 |
| 20260509223053 | 44 | 0 | 0.0 | 2.0 | 0.02 | 0.72 | 0.72 | 96 | 1040.4 |
| 20260509221550 | 44 | 0 | 0.0 | 2.0 | 0.04 | 0.72 | 0.72 | 96 | 1040.4 |
| 20260509220052 | 44 | 0 | 0.0 | 1.0 | 0.07 | 0.72 | 0.72 | 96 | 1040.5 |
| 20260509214552 | 44 | 0 | 0.0 | 1.0 | 0.09 | 0.71 | 0.71 | 96 | 1040.8 |
| 20260509213108 | 43 | 0 | 0.0 | 1.0 | 0.10 | 0.69 | 0.69 | 96 | 1040.9 |
| 20260509211602 | 43 | 94 | 0.0 | 2.0 | 0.11 | 0.67 | 0.67 | 96 | 1041.0 |
| 20260509210053 | 43 | 94 | 0.0 | 2.0 | 0.13 | 0.65 | 0.65 | 96 | 1041.1 |